createdAt,value
2022-12-03T00:02:57.942Z,37.15
2022-12-03T00:08:01.794Z,34.80
2022-12-03T00:13:04.339Z,35.92
2022-12-03T00:18:06.810Z,34.33
2022-12-03T00:23:10.515Z,32.65
2022-12-03T00:33:15.060Z,33.90
2022-12-03T00:38:18.739Z,40.47
2022-12-03T00:43:22.150Z,35.72
2022-12-03T00:48:24.555Z,35.28
2022-12-03T00:53:28.264Z,35.90
2022-12-03T00:58:30.644Z,38.70
2022-12-03T01:03:33.029Z,35.83
2022-12-03T01:08:36.782Z,38.30
2022-12-03T01:13:39.185Z,36.75
2022-12-03T01:18:41.588Z,38.72
2022-12-03T01:23:45.338Z,41.17
2022-12-03T01:33:49.937Z,41.75
2022-12-03T01:38:53.685Z,37.70
2022-12-03T01:43:56.241Z,40.78
2022-12-03T01:48:58.765Z,43.33
2022-12-03T01:54:03.578Z,38.33
2022-12-03T01:59:05.923Z,40.58
2022-12-03T02:04:10.522Z,39.75
2022-12-03T02:09:14.552Z,39.28
2022-12-03T02:14:18.991Z,41.72
2022-12-03T02:19:24.993Z,43.75
2022-12-03T02:24:34.356Z,41.15
2022-12-03T02:29:38.088Z,45.13
2022-12-03T02:34:41.985Z,43.53
2022-12-03T02:39:48.045Z,43.67
2022-12-03T02:44:52.310Z,39.75
2022-12-03T02:49:55.129Z,41.42
2022-12-03T02:54:57.487Z,44.78
2022-12-03T03:00:01.251Z,42.85
2022-12-03T03:05:03.765Z,39.45
2022-12-03T03:10:07.533Z,39.92
2022-12-03T03:15:12.288Z,36.72
2022-12-03T03:20:14.796Z,31.45
2022-12-03T03:25:18.392Z,34.80
2022-12-03T03:35:24.948Z,32.28
2022-12-03T03:40:27.965Z,31.80
2022-12-03T03:45:30.490Z,29.15
2022-12-03T03:50:34.300Z,31.75
2022-12-03T03:55:36.741Z,32.47
2022-12-03T04:00:39.253Z,29.08
2022-12-03T04:05:42.972Z,30.65
2022-12-03T04:11:02.683Z,30.38
2022-12-03T04:16:05.219Z,31.33
2022-12-03T04:21:38.081Z,33.42
2022-12-03T04:26:57.918Z,35.03
2022-12-03T04:32:17.680Z,33.40
2022-12-03T04:37:21.449Z,31.55
2022-12-03T04:42:23.824Z,34.33
2022-12-03T04:47:26.218Z,31.40
2022-12-03T04:52:29.895Z,32.75
2022-12-03T05:02:34.625Z,31.23
2022-12-03T05:07:38.600Z,34.72
2022-12-03T05:12:41.037Z,38.22
2022-12-03T05:17:43.437Z,36.40
2022-12-03T05:22:47.148Z,38.85
2022-12-03T05:27:49.499Z,36.47
2022-12-03T05:32:51.857Z,40.58
2022-12-03T05:37:55.560Z,31.70
2022-12-03T05:42:57.873Z,39.72
2022-12-03T05:48:00.854Z,37.95
2022-12-03T05:53:04.922Z,39.45
2022-12-03T05:58:07.309Z,40.58
2022-12-03T06:03:09.868Z,37.60
2022-12-03T06:08:13.761Z,49.83
2022-12-03T06:13:16.182Z,43.90
2022-12-03T06:18:18.537Z,41.05
2022-12-03T06:23:22.238Z,40.95
2022-12-03T06:28:24.658Z,40.83
2022-12-03T06:33:27.034Z,43.33
2022-12-03T06:38:30.761Z,44.70
2022-12-03T06:43:33.127Z,48.17
2022-12-03T06:48:35.523Z,51.83
2022-12-03T06:53:39.221Z,53.45
2022-12-03T07:03:43.879Z,53.60
2022-12-03T07:08:47.679Z,65.35
2022-12-03T07:13:50.062Z,62.75
2022-12-03T07:18:52.446Z,57.08
2022-12-03T07:23:56.174Z,54.67
2022-12-03T07:28:58.544Z,49.22
2022-12-03T07:34:00.868Z,51.72
2022-12-03T07:39:04.854Z,50.47
2022-12-03T07:44:13.754Z,51.58
2022-12-03T07:49:16.626Z,47.67
2022-12-03T07:54:20.334Z,51.45
2022-12-03T08:04:24.916Z,44.55
2022-12-03T08:09:28.656Z,47.75
2022-12-03T08:14:31.091Z,49.55
2022-12-03T08:19:33.455Z,47.53
2022-12-03T08:24:37.227Z,52.47
2022-12-03T08:29:39.620Z,51.35
2022-12-03T08:34:43.047Z,47.88
2022-12-03T08:39:48.324Z,48.63
2022-12-03T08:44:50.888Z,45.67
2022-12-03T08:49:55.319Z,39.25
2022-12-03T08:54:59.066Z,41.78
2022-12-03T09:00:07.148Z,35.47
2022-12-03T09:05:14.149Z,43.38
2022-12-03T09:10:18.151Z,46.58
2022-12-03T09:15:20.546Z,39.92
2022-12-03T09:20:23.105Z,38.85
2022-12-03T09:25:26.857Z,42.63
2022-12-03T09:35:32.560Z,38.58
2022-12-03T09:40:36.358Z,42.92
2022-12-03T09:45:38.867Z,35.60
2022-12-03T09:50:41.767Z,30.33
2022-12-03T09:55:46.476Z,27.10
2022-12-03T10:00:49.699Z,28.67
2022-12-03T10:05:52.672Z,29.25
2022-12-03T10:10:57.372Z,28.67
2022-12-03T10:16:00.994Z,31.80
2022-12-03T10:26:07.087Z,36.20
2022-12-03T10:31:10.891Z,42.95
2022-12-03T10:36:24.396Z,48.53
2022-12-03T10:41:28.845Z,42.07
2022-12-03T10:46:31.290Z,50.50
2022-12-03T10:51:33.739Z,50.75
2022-12-03T10:56:37.464Z,45.10
2022-12-03T11:01:39.959Z,47.28
2022-12-03T11:06:42.335Z,51.78
2022-12-03T11:11:46.433Z,53.50
2022-12-03T11:17:12.335Z,54.47
2022-12-03T11:22:24.894Z,60.13
2022-12-03T11:27:28.596Z,61.00
2022-12-03T11:37:34.691Z,54.50
2022-12-03T11:42:41.600Z,51.88
2022-12-03T11:47:45.005Z,48.47
2022-12-03T11:52:48.888Z,46.72
2022-12-03T11:57:57.418Z,42.30
2022-12-03T12:02:59.821Z,40.35
2022-12-03T12:08:03.034Z,38.65
2022-12-03T12:13:07.384Z,38.83
2022-12-03T12:18:28.329Z,41.83
2022-12-03T12:23:30.758Z,49.33
2022-12-03T12:28:34.475Z,36.70
2022-12-03T12:33:36.811Z,32.75
2022-12-03T12:38:39.149Z,38.60
2022-12-03T12:43:42.843Z,34.78
2022-12-03T12:48:45.196Z,36.17
2022-12-03T12:53:47.837Z,36.65
2022-12-03T12:58:51.679Z,40.77
2022-12-03T13:03:54.731Z,33.30
2022-12-03T13:08:58.182Z,36.53
2022-12-03T13:14:02.206Z,37.65
2022-12-03T13:19:14.189Z,37.88
2022-12-03T13:24:33.237Z,45.70
2022-12-03T13:29:36.989Z,42.05
2022-12-03T13:39:47.296Z,46.83
2022-12-03T13:44:51.449Z,54.95
2022-12-03T13:49:55.135Z,49.55
2022-12-03T13:54:57.903Z,49.70
2022-12-03T14:00:01.624Z,54.63
2022-12-03T14:10:07.117Z,58.85
2022-12-03T14:15:11.606Z,50.28
2022-12-03T14:20:14.285Z,59.80
2022-12-03T14:25:16.921Z,52.47
2022-12-03T14:30:20.838Z,54.15
2022-12-03T14:35:23.526Z,45.10
2022-12-03T14:40:26.329Z,47.72
2022-12-03T14:45:30.586Z,56.13
2022-12-03T14:50:32.954Z,61.95
2022-12-03T14:55:35.347Z,61.22
2022-12-03T15:00:39.073Z,56.30
2022-12-03T15:10:43.697Z,56.25
2022-12-03T15:15:47.385Z,60.42
2022-12-03T15:25:52.471Z,62.67
2022-12-03T15:30:56.381Z,67.00
2022-12-03T15:35:58.812Z,56.70
2022-12-03T15:41:20.591Z,56.83
2022-12-03T15:46:24.650Z,56.15
2022-12-03T15:51:27.060Z,57.85
2022-12-03T15:56:29.609Z,58.45
2022-12-03T16:01:33.623Z,60.10
2022-12-03T16:06:36.184Z,56.53
2022-12-03T16:11:38.564Z,57.30
2022-12-03T16:16:42.315Z,49.25
2022-12-03T16:26:46.854Z,51.03
2022-12-03T16:31:50.574Z,47.78
2022-12-03T16:41:55.141Z,52.42
2022-12-03T16:46:58.890Z,52.83
2022-12-03T16:52:01.304Z,53.30
2022-12-03T16:57:03.975Z,51.70
2022-12-03T17:02:07.887Z,47.78
2022-12-03T17:07:10.388Z,50.25
2022-12-03T17:12:12.772Z,52.80
2022-12-03T17:17:16.468Z,52.33
2022-12-03T17:27:23.173Z,50.20
2022-12-03T17:32:26.890Z,56.78
2022-12-03T17:42:31.656Z,48.40
2022-12-03T17:47:35.536Z,51.30
2022-12-03T17:52:37.948Z,49.97
2022-12-03T17:57:40.364Z,46.85
2022-12-03T18:02:44.054Z,44.47
2022-12-03T18:12:48.771Z,49.85
2022-12-03T18:17:52.771Z,48.50
2022-12-03T18:22:55.197Z,50.20
2022-12-03T18:27:57.609Z,42.95
2022-12-03T18:33:04.139Z,42.65
2022-12-03T18:38:06.566Z,43.13
2022-12-03T18:43:12.090Z,50.92
2022-12-03T18:48:16.626Z,50.72
2022-12-03T18:53:19.925Z,46.20
2022-12-03T18:58:22.275Z,43.58
2022-12-03T19:03:26.138Z,55.70
2022-12-03T19:08:29.582Z,44.85
2022-12-03T19:13:31.930Z,44.40
2022-12-03T19:18:35.914Z,52.92
2022-12-03T19:23:38.389Z,45.22
2022-12-03T19:28:41.570Z,50.72
2022-12-03T19:33:45.735Z,59.33
2022-12-03T19:38:52.191Z,48.53
2022-12-03T19:43:59.658Z,53.80
2022-12-03T19:49:06.352Z,48.03
2022-12-03T19:54:11.194Z,52.05
2022-12-03T19:59:14.135Z,56.28
2022-12-03T20:04:17.825Z,61.33
2022-12-03T20:09:21.438Z,52.33
2022-12-03T20:14:24.062Z,56.03
2022-12-03T20:19:27.817Z,52.88
2022-12-03T20:29:32.628Z,48.35
2022-12-03T20:34:36.345Z,57.80
2022-12-03T20:44:41.060Z,55.28
2022-12-03T20:49:44.938Z,55.00
2022-12-03T20:54:47.471Z,53.97
2022-12-03T20:59:49.993Z,56.15
2022-12-03T21:04:54.252Z,55.92
2022-12-03T21:09:56.982Z,55.40
2022-12-03T21:14:59.653Z,53.10
2022-12-03T21:20:03.435Z,58.15
2022-12-03T21:25:06.125Z,59.40
2022-12-03T21:30:08.965Z,54.10
2022-12-03T21:35:13.012Z,64.67
2022-12-03T21:40:15.596Z,65.95
2022-12-03T21:45:18.137Z,60.97
2022-12-03T21:50:24.776Z,64.03
2022-12-03T21:55:27.169Z,62.97
2022-12-03T22:00:29.524Z,60.45
2022-12-03T22:05:33.287Z,68.25
2022-12-03T22:10:35.855Z,58.40
2022-12-03T22:15:39.188Z,59.38
2022-12-03T22:20:43.773Z,71.00
2022-12-03T22:25:46.125Z,69.20
2022-12-03T22:30:48.525Z,66.85
2022-12-03T22:35:59.304Z,60.75
2022-12-03T22:41:05.125Z,66.88
2022-12-03T22:46:10.392Z,78.03
2022-12-03T22:51:14.921Z,66.22
2022-12-03T22:56:17.451Z,66.07
2022-12-03T23:01:21.504Z,56.08
2022-12-03T23:06:25.251Z,62.63
2022-12-03T23:16:31.052Z,61.13
2022-12-03T23:26:38.236Z,63.35
2022-12-03T23:31:40.642Z,64.55
2022-12-03T23:36:43.032Z,65.45
2022-12-03T23:41:46.748Z,63.28
2022-12-03T23:51:51.457Z,58.17
2022-12-03T23:56:55.221Z,68.60
